createdAt,value
2022-09-27T00:01:14.704Z,1.60
2022-09-27T00:06:11.488Z,1.73
2022-09-27T00:11:30.979Z,1.98
2022-09-27T00:16:27.737Z,2.00
2022-09-27T00:21:22.209Z,2.15
2022-09-27T00:26:16.799Z,2.17
2022-09-27T00:31:31.108Z,1.83
2022-09-27T00:36:27.069Z,1.92
2022-09-27T00:41:23.780Z,1.65
2022-09-27T00:46:25.568Z,1.77
2022-09-27T00:51:20.079Z,1.95
2022-09-27T00:56:16.451Z,2.10
2022-09-27T01:01:17.482Z,3.38
2022-09-27T01:06:11.675Z,2.58
2022-09-27T01:11:30.079Z,4.05
2022-09-27T01:16:30.624Z,3.72
2022-09-27T01:21:49.118Z,2.97
2022-09-27T01:27:00.364Z,3.38
2022-09-27T01:32:08.412Z,4.55
2022-09-27T01:37:16.834Z,3.65
2022-09-27T01:42:26.544Z,3.13
2022-09-27T01:47:24.531Z,3.30
2022-09-27T01:52:34.647Z,2.65
2022-09-27T01:57:33.564Z,2.80
2022-09-27T02:02:30.712Z,2.72
2022-09-27T02:08:01.208Z,4.10
2022-09-27T02:13:13.600Z,3.40
2022-09-27T02:18:21.045Z,3.25
2022-09-27T02:23:31.838Z,3.75
2022-09-27T02:29:00.130Z,3.97
2022-09-27T02:34:12.600Z,3.20
2022-09-27T02:39:05.841Z,3.45
2022-09-27T02:44:07.155Z,3.40
2022-09-27T02:49:22.038Z,3.63
2022-09-27T02:54:41.668Z,3.90
2022-09-27T03:00:08.029Z,3.92
2022-09-27T03:05:19.510Z,3.88
2022-09-27T03:10:23.651Z,3.80
2022-09-27T03:15:18.174Z,3.53
2022-09-27T03:20:20.855Z,3.50
2022-09-27T03:25:32.889Z,3.58
2022-09-27T03:30:25.780Z,2.88
2022-09-27T03:35:19.508Z,3.97
2022-09-27T03:40:13.857Z,3.00
2022-09-27T03:45:10.421Z,3.13
2022-09-27T03:50:04.286Z,4.20
2022-09-27T03:55:01.989Z,3.50
2022-09-27T03:59:57.004Z,3.47
2022-09-27T04:05:11.280Z,3.65
2022-09-27T04:10:05.898Z,4.70
2022-09-27T04:15:03.861Z,6.43
2022-09-27T04:20:16.131Z,7.15
2022-09-27T04:25:10.477Z,6.82
2022-09-27T04:30:11.543Z,7.88
2022-09-27T04:35:42.490Z,6.63
2022-09-27T04:40:36.762Z,7.95
2022-09-27T04:45:30.334Z,6.63
2022-09-27T04:50:23.792Z,6.70
2022-09-27T04:55:31.223Z,6.32
2022-09-27T05:00:26.086Z,5.88
2022-09-27T05:05:27.500Z,7.28
2022-09-27T05:10:24.734Z,9.82
2022-09-27T05:15:18.955Z,9.10
2022-09-27T05:20:31.128Z,8.40
2022-09-27T05:25:37.588Z,9.07
2022-09-27T05:30:31.227Z,8.88
2022-09-27T05:35:36.245Z,8.70
2022-09-27T05:40:40.799Z,7.30
2022-09-27T05:45:35.195Z,8.68
2022-09-27T05:50:30.419Z,7.85
2022-09-27T05:55:24.291Z,7.13
2022-09-27T06:00:18.747Z,7.00
2022-09-27T06:05:12.009Z,5.35
2022-09-27T06:10:08.373Z,4.28
2022-09-27T06:15:02.080Z,3.58
2022-09-27T06:20:10.678Z,3.28
2022-09-27T06:25:04.903Z,8.10
2022-09-27T06:30:04.852Z,7.72
2022-09-27T06:35:11.348Z,7.88
2022-09-27T06:40:04.879Z,7.00
2022-09-27T06:45:32.304Z,7.43
2022-09-27T06:50:47.094Z,5.90
2022-09-27T06:55:40.537Z,5.40
2022-09-27T07:00:34.810Z,4.15
2022-09-27T07:06:05.392Z,6.47
2022-09-27T07:11:16.500Z,6.40
2022-09-27T07:16:13.717Z,3.80
2022-09-27T07:21:09.653Z,3.03
2022-09-27T07:26:11.324Z,4.50
2022-09-27T07:31:05.909Z,4.10
2022-09-27T07:35:59.163Z,4.07
2022-09-27T07:40:52.922Z,4.70
2022-09-27T07:45:47.484Z,4.20
2022-09-27T07:50:56.857Z,4.95
2022-09-27T07:56:13.943Z,6.22
2022-09-27T08:01:08.173Z,4.82
2022-09-27T08:06:03.500Z,5.13
2022-09-27T08:10:58.040Z,5.32
2022-09-27T08:15:53.020Z,5.60
2022-09-27T08:20:48.124Z,4.85
2022-09-27T08:26:00.503Z,4.75
2022-09-27T08:30:59.735Z,4.75
2022-09-27T08:35:53.659Z,4.47
2022-09-27T08:41:11.097Z,4.45
2022-09-27T08:46:32.819Z,2.92
2022-09-27T08:51:30.871Z,3.40
2022-09-27T08:56:24.183Z,2.90
2022-09-27T09:01:17.917Z,3.13
2022-09-27T09:06:27.893Z,2.42
2022-09-27T09:12:04.246Z,2.63
2022-09-27T09:17:09.568Z,2.10
2022-09-27T09:22:38.091Z,2.80
2022-09-27T09:28:10.345Z,2.13
2022-09-27T09:33:24.565Z,2.47
2022-09-27T09:38:44.726Z,2.10
2022-09-27T09:44:20.276Z,2.03
2022-09-27T09:49:39.640Z,1.67
2022-09-27T09:55:01.084Z,1.55
2022-09-27T10:00:00.629Z,1.48
2022-09-27T10:04:56.866Z,1.80
2022-09-27T10:09:50.697Z,1.52
2022-09-27T10:15:07.356Z,2.17
2022-09-27T10:20:00.986Z,1.60
2022-09-27T10:24:56.724Z,1.30
2022-09-27T10:30:06.481Z,1.83
2022-09-27T10:35:30.110Z,1.60
2022-09-27T10:40:48.443Z,1.60
2022-09-27T10:45:42.109Z,1.88
2022-09-27T10:50:59.798Z,1.55
2022-09-27T10:56:06.547Z,1.33
2022-09-27T11:01:05.078Z,1.45
2022-09-27T11:06:24.383Z,1.45
2022-09-27T11:11:20.828Z,1.25
2022-09-27T11:16:28.008Z,1.50
2022-09-27T11:21:40.713Z,1.30
2022-09-27T11:26:55.822Z,1.30
2022-09-27T11:31:48.723Z,1.40
2022-09-27T11:36:44.485Z,1.77
2022-09-27T11:42:03.223Z,1.00
2022-09-27T11:47:23.638Z,2.10
2022-09-27T11:52:28.472Z,1.38
2022-09-27T11:57:27.310Z,2.78
2022-09-27T12:02:20.040Z,1.98
2022-09-27T12:07:27.837Z,1.73
2022-09-27T12:12:41.965Z,2.30
2022-09-27T12:17:37.925Z,2.60
2022-09-27T12:22:57.601Z,1.70
2022-09-27T12:28:02.475Z,1.70
2022-09-27T12:33:26.401Z,1.58
2022-09-27T12:38:38.485Z,1.90
2022-09-27T12:43:35.257Z,1.83
2022-09-27T12:49:20.437Z,1.48
2022-09-27T12:54:13.365Z,2.85
2022-09-27T12:59:06.533Z,1.55
2022-09-27T13:04:21.433Z,1.58
2022-09-27T13:09:49.454Z,1.08
2022-09-27T13:19:55.682Z,1.30
2022-09-27T13:24:50.583Z,1.17
2022-09-27T13:30:14.503Z,1.65
2022-09-27T13:35:19.363Z,1.35
2022-09-27T13:40:28.541Z,1.20
2022-09-27T13:46:10.224Z,1.55
2022-09-27T13:56:38.931Z,1.35
2022-09-27T14:02:12.206Z,1.80
2022-09-27T14:07:06.846Z,3.00
2022-09-27T14:12:00.403Z,1.38
2022-09-27T14:16:55.256Z,1.42
2022-09-27T14:21:49.280Z,1.83
2022-09-27T14:27:20.406Z,1.40
2022-09-27T14:32:37.554Z,1.30
2022-09-27T14:37:39.547Z,2.17
2022-09-27T14:42:40.181Z,1.38
2022-09-27T14:47:34.160Z,1.25
2022-09-27T14:52:33.822Z,1.45
2022-09-27T14:57:29.302Z,1.25
2022-09-27T15:02:24.379Z,1.40
2022-09-27T15:07:19.580Z,1.58
2022-09-27T15:12:24.021Z,1.58
2022-09-27T15:17:19.320Z,1.88
2022-09-27T15:22:36.571Z,1.13
2022-09-27T15:27:31.343Z,1.40
2022-09-27T15:32:27.158Z,1.33
2022-09-27T15:37:27.101Z,1.13
2022-09-27T15:42:20.762Z,1.10
2022-09-27T15:47:39.526Z,1.08
2022-09-27T15:53:03.681Z,1.35
2022-09-27T15:58:02.574Z,1.42
2022-09-27T16:02:55.189Z,1.33
2022-09-27T16:07:49.109Z,1.55
2022-09-27T16:12:42.323Z,1.20
2022-09-27T16:17:38.992Z,2.83
2022-09-27T16:22:33.364Z,1.58
2022-09-27T16:27:28.115Z,1.95
2022-09-27T16:32:23.481Z,1.27
2022-09-27T16:37:16.612Z,1.42
2022-09-27T16:42:10.088Z,1.38
2022-09-27T16:47:26.779Z,1.08
2022-09-27T16:52:19.525Z,0.95
2022-09-27T16:57:13.338Z,1.25
2022-09-27T17:02:06.854Z,1.20
2022-09-27T17:07:00.437Z,1.15
2022-09-27T17:11:53.799Z,1.35
2022-09-27T17:16:47.161Z,1.20
2022-09-27T17:21:41.592Z,1.42
2022-09-27T17:26:35.604Z,1.77
2022-09-27T17:31:31.800Z,1.25
2022-09-27T17:36:27.729Z,1.10
2022-09-27T17:41:24.531Z,1.00
2022-09-27T17:46:20.147Z,1.40
2022-09-27T17:51:14.973Z,0.90
2022-09-27T17:56:07.724Z,1.30
2022-09-27T18:01:08.859Z,1.10
2022-09-27T18:06:07.446Z,1.17
2022-09-27T18:11:16.352Z,1.27
2022-09-27T18:16:11.608Z,1.30
2022-09-27T18:21:06.325Z,1.38
2022-09-27T18:25:59.675Z,2.00
2022-09-27T18:30:54.045Z,1.65
2022-09-27T18:35:48.505Z,1.13
2022-09-27T18:40:56.065Z,1.73
2022-09-27T18:45:49.902Z,1.33
2022-09-27T18:50:43.735Z,2.85
2022-09-27T18:55:42.897Z,1.33
2022-09-27T19:00:40.733Z,1.20
2022-09-27T19:05:40.280Z,1.80
2022-09-27T19:10:40.656Z,1.20
2022-09-27T19:15:40.314Z,1.48
2022-09-27T19:20:43.378Z,1.38
2022-09-27T19:25:42.391Z,1.38
2022-09-27T19:30:40.972Z,1.20
2022-09-27T19:35:34.024Z,2.13
2022-09-27T19:40:27.577Z,1.50
2022-09-27T19:45:25.909Z,1.83
2022-09-27T19:50:20.824Z,1.10
2022-09-27T19:55:15.008Z,1.48
2022-09-27T20:00:10.983Z,1.52
2022-09-27T20:05:04.641Z,1.38
2022-09-27T20:09:58.624Z,2.38
2022-09-27T20:14:52.503Z,1.67
2022-09-27T20:19:46.561Z,1.45
2022-09-27T20:24:40.441Z,2.05
2022-09-27T20:29:35.197Z,1.30
2022-09-27T20:34:29.457Z,1.70
2022-09-27T20:39:23.927Z,1.73
2022-09-27T20:44:19.776Z,1.88
2022-09-27T20:49:16.298Z,1.98
2022-09-27T20:54:10.743Z,2.00
2022-09-27T20:59:09.326Z,1.38
2022-09-27T21:04:07.839Z,1.40
2022-09-27T21:09:04.373Z,1.98
2022-09-27T21:14:01.233Z,1.30
2022-09-27T21:19:02.879Z,1.42
2022-09-27T21:24:02.418Z,1.27
2022-09-27T21:29:00.391Z,1.50
2022-09-27T21:34:00.866Z,1.70
2022-09-27T21:38:58.473Z,1.55
2022-09-27T21:43:57.928Z,1.10
2022-09-27T21:49:19.491Z,1.97
2022-09-27T21:54:19.132Z,1.50
2022-09-27T21:59:19.082Z,1.58
2022-09-27T22:04:16.663Z,1.48
2022-09-27T22:09:20.677Z,1.42
2022-09-27T22:14:23.700Z,1.30
2022-09-27T22:19:21.313Z,1.63
2022-09-27T22:24:19.101Z,1.85
2022-09-27T22:29:22.502Z,1.30
2022-09-27T22:34:29.184Z,1.50
2022-09-27T22:39:27.999Z,1.73
2022-09-27T22:44:29.018Z,1.23
2022-09-27T22:49:29.086Z,1.50
2022-09-27T22:54:25.343Z,1.23
2022-09-27T22:59:20.263Z,1.60
2022-09-27T23:04:15.442Z,1.88
2022-09-27T23:09:10.677Z,1.50
2022-09-27T23:14:09.384Z,2.03
2022-09-27T23:19:05.731Z,1.65
2022-09-27T23:24:04.306Z,1.67
2022-09-27T23:29:02.082Z,1.90
2022-09-27T23:33:57.247Z,2.20
2022-09-27T23:38:55.872Z,2.03
2022-09-27T23:43:51.970Z,2.60
2022-09-27T23:48:52.217Z,1.80
2022-09-27T23:53:49.196Z,2.15
2022-09-27T23:58:46.972Z,1.92
